createdAt,value
2022-08-08T00:00:56.387Z,100348.84
2022-08-08T00:03:20.240Z,100339.22
2022-08-08T00:06:03.509Z,100344.34
2022-08-08T00:08:39.733Z,100342.53
2022-08-08T00:11:18.473Z,100348.63
2022-08-08T00:14:16.606Z,100339.91
2022-08-08T00:17:02.414Z,100336.41
2022-08-08T00:19:36.945Z,100336.28
2022-08-08T00:22:13.635Z,100330.19
2022-08-08T00:24:47.309Z,100338.06
2022-08-08T00:27:19.056Z,100342.34
2022-08-08T00:29:52.849Z,100346.69
2022-08-08T00:32:35.329Z,100338.00
2022-08-08T00:35:34.179Z,100345.00
2022-08-08T00:38:51.592Z,100346.75
2022-08-08T00:42:07.642Z,100352.78
2022-08-08T00:45:05.185Z,100357.03
2022-08-08T00:48:33.856Z,100363.91
2022-08-08T00:51:42.207Z,100363.81
2022-08-08T00:54:43.467Z,100358.59
2022-08-08T00:57:40.512Z,100360.34
2022-08-08T01:00:22.149Z,100358.50
2022-08-08T01:04:01.459Z,100359.38
2022-08-08T01:07:01.428Z,100358.72
2022-08-08T01:10:01.485Z,100360.41
2022-08-08T01:12:58.130Z,100360.34
2022-08-08T01:15:54.652Z,100362.00
2022-08-08T01:18:57.176Z,100351.66
2022-08-08T01:22:13.634Z,100355.09
2022-08-08T01:24:59.534Z,100367.16
2022-08-08T01:27:59.290Z,100362.69
2022-08-08T01:31:01.930Z,100360.19
2022-08-08T01:34:04.929Z,100365.38
2022-08-08T01:37:13.823Z,100365.97
2022-08-08T01:40:04.416Z,100366.72
2022-08-08T01:42:43.862Z,100368.69
2022-08-08T01:45:33.804Z,100368.66
2022-08-08T01:48:27.914Z,100367.16
2022-08-08T01:51:32.421Z,100369.94
2022-08-08T01:55:44.918Z,100376.03
2022-08-08T01:58:12.724Z,100374.38
2022-08-08T02:00:33.633Z,100365.78
2022-08-08T02:03:57.123Z,100373.69
2022-08-08T02:06:31.740Z,100376.19
2022-08-08T02:09:17.674Z,100372.53
2022-08-08T02:11:59.096Z,100381.06
2022-08-08T02:14:55.595Z,100374.22
2022-08-08T02:17:43.147Z,100379.41
2022-08-08T02:21:02.250Z,100376.91
2022-08-08T02:23:23.065Z,100380.41
2022-08-08T02:26:08.008Z,100374.34
2022-08-08T02:28:51.656Z,100369.03
2022-08-08T02:31:59.230Z,100368.97
2022-08-08T02:35:11.045Z,100365.50
2022-08-08T02:38:11.284Z,100374.03
2022-08-08T02:40:50.145Z,100380.88
2022-08-08T02:44:38.767Z,100380.75
2022-08-08T02:47:06.168Z,100378.81
2022-08-08T02:49:51.948Z,100374.97
2022-08-08T02:52:50.605Z,100382.88
2022-08-08T02:55:59.710Z,100380.38
2022-08-08T02:59:05.976Z,100381.28
2022-08-08T03:02:33.146Z,100383.63
2022-08-08T03:05:46.304Z,100377.44
2022-08-08T03:08:44.569Z,100374.78
2022-08-08T03:12:01.529Z,100385.03
2022-08-08T03:15:57.398Z,100383.25
2022-08-08T03:18:00.127Z,100386.75
2022-08-08T03:20:47.043Z,100390.00
2022-08-08T03:23:30.334Z,100388.94
2022-08-08T03:26:11.854Z,100395.41
2022-08-08T03:28:45.038Z,100392.88
2022-08-08T03:32:07.240Z,100390.38
2022-08-08T03:34:27.561Z,100395.47
2022-08-08T03:36:55.671Z,100391.28
2022-08-08T03:39:25.205Z,100393.94
2022-08-08T03:42:27.905Z,100400.88
2022-08-08T03:44:47.846Z,100398.66
2022-08-08T03:47:22.768Z,100398.50
2022-08-08T03:50:24.645Z,100400.84
2022-08-08T03:52:55.397Z,100398.41
2022-08-08T03:55:57.712Z,100402.22
2022-08-08T03:58:35.648Z,100403.97
2022-08-08T04:01:23.582Z,100401.25
2022-08-08T04:03:59.029Z,100405.50
2022-08-08T04:06:30.738Z,100410.44
2022-08-08T04:09:10.470Z,100413.75
2022-08-08T04:11:48.469Z,100409.91
2022-08-08T04:14:50.580Z,100414.94
2022-08-08T04:17:40.903Z,100418.56
2022-08-08T04:20:08.502Z,100416.81
2022-08-08T04:22:37.602Z,100418.22
2022-08-08T04:25:08.460Z,100422.81
2022-08-08T04:28:01.362Z,100420.59
2022-08-08T04:30:30.056Z,100423.47
2022-08-08T04:33:04.864Z,100422.75
2022-08-08T04:35:39.524Z,100423.47
2022-08-08T04:38:09.755Z,100424.19
2022-08-08T04:40:51.528Z,100436.22
2022-08-08T04:43:31.306Z,100436.13
2022-08-08T04:45:59.263Z,100441.88
2022-08-08T04:48:27.091Z,100446.09
2022-08-08T04:50:58.838Z,100451.03
2022-08-08T04:54:36.047Z,100451.13
2022-08-08T04:56:20.440Z,100449.81
2022-08-08T04:58:50.467Z,100456.94
2022-08-08T05:01:19.760Z,100467.38
2022-08-08T05:04:07.749Z,100464.94
2022-08-08T05:06:40.947Z,100466.13
2022-08-08T05:09:10.586Z,100462.81
2022-08-08T05:11:41.580Z,100465.34
2022-08-08T05:14:14.853Z,100469.34
2022-08-08T05:16:55.312Z,100474.53
2022-08-08T05:20:12.405Z,100466.09
2022-08-08T05:22:21.027Z,100479.00
2022-08-08T05:24:50.926Z,100476.38
2022-08-08T05:27:22.247Z,100487.72
2022-08-08T05:29:54.819Z,100488.91
2022-08-08T05:32:27.362Z,100496.25
2022-08-08T05:35:04.588Z,100488.91
2022-08-08T05:37:53.763Z,100486.41
2022-08-08T05:40:48.945Z,100484.84
2022-08-08T05:43:39.951Z,100491.00
2022-08-08T05:46:16.129Z,100481.72
2022-08-08T05:48:52.204Z,100485.25
2022-08-08T05:51:23.088Z,100487.03
2022-08-08T05:54:26.957Z,100495.00
2022-08-08T05:56:47.370Z,100493.41
2022-08-08T06:00:00.642Z,100496.91
2022-08-08T06:02:52.090Z,100499.53
2022-08-08T06:05:33.615Z,100500.50
2022-08-08T06:08:10.325Z,100506.59
2022-08-08T06:10:57.882Z,100511.84
2022-08-08T06:13:29.966Z,100510.09
2022-08-08T06:16:04.554Z,100514.53
2022-08-08T06:19:01.719Z,100506.78
2022-08-08T06:21:51.396Z,100512.09
2022-08-08T06:24:31.030Z,100512.16
2022-08-08T06:27:05.716Z,100508.75
2022-08-08T06:29:56.415Z,100508.72
2022-08-08T06:32:31.126Z,100508.78
2022-08-08T06:35:11.939Z,100509.66
2022-08-08T06:38:03.102Z,100510.56
2022-08-08T06:40:36.767Z,100511.44
2022-08-08T06:43:10.405Z,100514.06
2022-08-08T06:45:48.141Z,100510.59
2022-08-08T06:48:17.173Z,100516.72
2022-08-08T06:50:47.242Z,100519.31
2022-08-08T06:53:20.972Z,100519.31
2022-08-08T06:56:02.853Z,100508.91
2022-08-08T06:58:34.807Z,100511.50
2022-08-08T07:01:24.532Z,100517.56
2022-08-08T07:04:38.057Z,100517.56
2022-08-08T07:06:56.654Z,100511.50
2022-08-08T07:09:41.926Z,100517.59
2022-08-08T07:12:30.504Z,100522.75
2022-08-08T07:15:05.654Z,100518.44
2022-08-08T07:17:40.220Z,100517.56
2022-08-08T07:20:30.734Z,100513.22
2022-08-08T07:23:04.563Z,100510.59
2022-08-08T07:25:39.292Z,100514.94
2022-08-08T07:28:18.849Z,100527.94
2022-08-08T07:30:49.379Z,100519.19
2022-08-08T07:33:17.709Z,100515.69
2022-08-08T07:35:48.604Z,100519.13
2022-08-08T07:38:25.541Z,100520.75
2022-08-08T07:41:04.658Z,100522.38
2022-08-08T07:43:37.597Z,100524.09
2022-08-08T07:46:23.310Z,100526.63
2022-08-08T07:48:53.542Z,100523.09
2022-08-08T07:51:23.149Z,100517.81
2022-08-08T07:54:06.686Z,100522.84
2022-08-08T07:56:47.845Z,100528.00
2022-08-08T07:59:19.165Z,100527.06
2022-08-08T08:02:32.858Z,100528.63
2022-08-08T08:04:49.142Z,100533.78
2022-08-08T08:07:31.784Z,100534.50
2022-08-08T08:10:03.721Z,100535.16
2022-08-08T08:12:41.415Z,100535.97
2022-08-08T08:15:23.279Z,100537.66
2022-08-08T08:17:58.620Z,100533.19
2022-08-08T08:20:30.809Z,100541.75
2022-08-08T08:23:02.213Z,100536.38
2022-08-08T08:25:43.178Z,100534.56
2022-08-08T08:28:24.224Z,100532.53
2022-08-08T08:30:58.454Z,100537.44
2022-08-08T08:33:28.171Z,100530.34
2022-08-08T08:36:19.763Z,100533.69
2022-08-08T08:38:49.580Z,100531.72
2022-08-08T08:41:22.274Z,100528.94
2022-08-08T08:43:52.640Z,100519.13
2022-08-08T08:46:45.588Z,100522.50
2022-08-08T08:49:19.507Z,100520.53
2022-08-08T08:51:51.162Z,100521.25
2022-08-08T08:54:25.329Z,100521.94
2022-08-08T08:56:56.399Z,100517.28
2022-08-08T08:59:59.586Z,100523.19
2022-08-08T09:02:21.832Z,100517.59
2022-08-08T09:05:00.158Z,100518.13
2022-08-08T09:07:38.998Z,100521.41
2022-08-08T09:10:20.483Z,100511.53
2022-08-08T09:12:52.488Z,100517.44
2022-08-08T09:15:41.455Z,100512.88
2022-08-08T09:18:11.155Z,100514.41
2022-08-08T09:22:05.300Z,100514.03
2022-08-08T09:23:33.510Z,100508.69
2022-08-08T09:26:17.021Z,100515.41
2022-08-08T09:28:46.160Z,100518.53
2022-08-08T09:31:42.856Z,100509.56
2022-08-08T09:34:31.492Z,100511.91
2022-08-08T09:37:28.760Z,100522.97
2022-08-08T09:40:01.555Z,100512.13
2022-08-08T09:42:44.519Z,100512.59
2022-08-08T09:46:01.150Z,100504.28
2022-08-08T09:48:21.081Z,100504.00
2022-08-08T09:50:55.026Z,100509.72
2022-08-08T09:53:53.248Z,100511.91
2022-08-08T09:56:24.850Z,100500.88
2022-08-08T09:58:58.368Z,100504.25
2022-08-08T10:01:59.274Z,100498.59
2022-08-08T10:04:42.287Z,100498.00
2022-08-08T10:07:13.965Z,100490.38
2022-08-08T10:09:59.431Z,100498.91
2022-08-08T10:12:38.745Z,100488.72
2022-08-08T10:15:21.909Z,100487.19
2022-08-08T10:18:05.494Z,100491.06
2022-08-08T10:20:51.409Z,100483.44
2022-08-08T10:23:41.887Z,100490.66
2022-08-08T10:26:30.958Z,100480.22
2022-08-08T10:29:06.347Z,100466.94
2022-08-08T10:31:52.817Z,100473.69
2022-08-08T10:34:25.217Z,100473.44
2022-08-08T10:36:56.378Z,100480.41
2022-08-08T10:39:31.794Z,100474.56
2022-08-08T10:42:14.737Z,100470.03
2022-08-08T10:44:43.283Z,100479.25
2022-08-08T10:47:12.465Z,100468.41
2022-08-08T10:50:01.639Z,100481.94
2022-08-08T10:52:32.716Z,100461.94
2022-08-08T10:55:05.078Z,100488.81
2022-08-08T10:57:50.153Z,100474.03
2022-08-08T11:00:27.510Z,100476.28
2022-08-08T11:02:55.927Z,100462.09
2022-08-08T11:05:27.438Z,100465.28
2022-08-08T11:08:31.825Z,100458.44
2022-08-08T11:11:08.009Z,100459.94
2022-08-08T11:13:40.132Z,100456.47
2022-08-08T11:16:32.533Z,100464.88
2022-08-08T11:19:02.506Z,100456.19
2022-08-08T11:21:37.968Z,100457.31
2022-08-08T11:24:08.438Z,100451.25
2022-08-08T11:26:56.891Z,100445.19
2022-08-08T11:29:41.759Z,100430.81
2022-08-08T11:32:16.807Z,100445.00
2022-08-08T11:35:24.938Z,100452.88
2022-08-08T11:38:35.633Z,100438.22
2022-08-08T11:40:31.543Z,100437.66
2022-08-08T11:43:01.176Z,100438.13
2022-08-08T11:45:29.728Z,100440.84
2022-08-08T11:48:05.517Z,100427.88
2022-08-08T11:50:37.865Z,100425.59
2022-08-08T11:53:07.607Z,100420.81
2022-08-08T11:55:36.757Z,100413.84
2022-08-08T11:58:15.140Z,100409.69
2022-08-08T12:00:47.316Z,100413.88
2022-08-08T12:03:20.935Z,100421.09
2022-08-08T12:05:49.312Z,100407.78
2022-08-08T12:08:30.664Z,100418.81
2022-08-08T12:11:01.430Z,100411.75
2022-08-08T12:13:33.328Z,100408.06
2022-08-08T12:16:10.852Z,100402.56
2022-08-08T12:18:45.892Z,100413.84
2022-08-08T12:21:58.627Z,100409.34
2022-08-08T12:24:19.220Z,100407.59
2022-08-08T12:26:49.943Z,100398.97
2022-08-08T12:29:25.895Z,100399.84
2022-08-08T12:32:13.471Z,100389.44
2022-08-08T12:34:50.768Z,100392.09
2022-08-08T12:37:22.908Z,100384.69
2022-08-08T12:40:00.873Z,100390.03
2022-08-08T12:42:33.678Z,100395.41
2022-08-08T12:45:58.137Z,100389.34
2022-08-08T12:48:10.290Z,100395.19
2022-08-08T12:50:54.622Z,100380.13
2022-08-08T12:53:30.317Z,100385.50
2022-08-08T12:56:18.288Z,100387.44
2022-08-08T12:58:49.137Z,100386.34
2022-08-08T13:01:16.857Z,100378.13
2022-08-08T13:03:52.306Z,100379.69
2022-08-08T13:06:21.252Z,100372.06
2022-08-08T13:08:53.609Z,100380.84
2022-08-08T13:11:28.517Z,100379.19
2022-08-08T13:14:15.802Z,100381.34
2022-08-08T13:16:49.379Z,100385.59
2022-08-08T13:19:20.210Z,100375.91
2022-08-08T13:22:04.950Z,100375.38
2022-08-08T13:24:42.463Z,100368.25
2022-08-08T13:27:18.915Z,100372.88
2022-08-08T13:29:50.497Z,100370.13
2022-08-08T13:32:20.939Z,100374.34
2022-08-08T13:34:53.330Z,100367.66
2022-08-08T13:37:51.882Z,100363.91
2022-08-08T13:40:12.303Z,100359.31
2022-08-08T13:42:47.374Z,100356.38
2022-08-08T13:45:24.041Z,100350.59
2022-08-08T13:47:58.065Z,100357.38
2022-08-08T13:50:36.437Z,100348.75
2022-08-08T13:53:24.848Z,100357.16
2022-08-08T13:55:59.420Z,100349.59
2022-08-08T13:58:30.064Z,100347.56
2022-08-08T14:00:57.805Z,100335.56
2022-08-08T14:03:53.198Z,100349.78
2022-08-08T14:06:32.368Z,100343.34
2022-08-08T14:09:24.954Z,100351.16
2022-08-08T14:11:50.128Z,100344.03
2022-08-08T14:14:21.003Z,100349.22
2022-08-08T14:16:53.359Z,100342.50
2022-08-08T14:19:54.259Z,100332.38
2022-08-08T14:22:23.160Z,100339.13
2022-08-08T14:25:01.269Z,100337.78
2022-08-08T14:27:33.276Z,100346.38
2022-08-08T14:30:18.440Z,100339.38
2022-08-08T14:32:47.745Z,100324.47
2022-08-08T14:35:23.369Z,100328.69
2022-08-08T14:38:00.867Z,100328.03
2022-08-08T14:40:31.596Z,100332.31
2022-08-08T14:43:01.833Z,100320.50
2022-08-08T14:46:01.985Z,100322.16
2022-08-08T14:48:40.767Z,100318.31
2022-08-08T14:51:17.906Z,100320.09
2022-08-08T14:53:55.518Z,100318.25
2022-08-08T14:56:25.024Z,100309.84
2022-08-08T14:58:54.213Z,100311.91
2022-08-08T15:01:40.672Z,100301.88
2022-08-08T15:04:10.480Z,100310.31
2022-08-08T15:06:39.113Z,100302.59
2022-08-08T15:09:10.019Z,100302.38
2022-08-08T15:11:46.185Z,100302.13
2022-08-08T15:14:25.177Z,100301.78
2022-08-08T15:16:57.141Z,100295.84
2022-08-08T15:19:28.023Z,100304.47
2022-08-08T15:21:57.819Z,100308.22
2022-08-08T15:24:31.323Z,100306.41
2022-08-08T15:27:00.187Z,100306.41
2022-08-08T15:29:47.513Z,100303.97
2022-08-08T15:32:19.847Z,100301.47
2022-08-08T15:34:48.688Z,100306.72
2022-08-08T15:37:17.312Z,100293.97
2022-08-08T15:39:48.114Z,100291.22
2022-08-08T15:42:31.908Z,100305.69
2022-08-08T15:45:00.894Z,100308.09
2022-08-08T15:47:31.940Z,100308.13
2022-08-08T15:50:00.428Z,100302.94
2022-08-08T15:52:29.595Z,100293.22
2022-08-08T15:54:59.093Z,100290.34
2022-08-08T15:57:26.734Z,100290.19
2022-08-08T16:00:18.227Z,100294.16
2022-08-08T16:02:53.066Z,100289.97
2022-08-08T16:05:23.792Z,100279.88
2022-08-08T16:07:53.826Z,100284.47
2022-08-08T16:13:15.519Z,100289.22
2022-08-08T16:13:30.706Z,100285.97
2022-08-08T16:16:12.818Z,100282.78
2022-08-08T16:18:53.393Z,100275.53
2022-08-08T16:21:27.871Z,100270.66
2022-08-08T16:23:56.454Z,100268.19
2022-08-08T16:26:33.743Z,100283.38
2022-08-08T16:29:07.029Z,100289.06
2022-08-08T16:31:37.331Z,100278.66
2022-08-08T16:34:06.632Z,100273.50
2022-08-08T16:36:36.560Z,100277.13
2022-08-08T16:39:16.581Z,100277.72
2022-08-08T16:41:54.013Z,100281.78
2022-08-08T16:44:34.372Z,100279.38
2022-08-08T16:47:21.782Z,100273.16
2022-08-08T16:50:02.836Z,100279.09
2022-08-08T16:55:04.277Z,100272.66
2022-08-08T16:55:34.223Z,100293.00
2022-08-08T16:58:15.645Z,100279.50
2022-08-08T17:00:49.112Z,100283.53
2022-08-08T17:03:24.837Z,100281.59
2022-08-08T17:06:04.583Z,100280.78
2022-08-08T17:08:32.264Z,100283.28
2022-08-08T17:11:11.048Z,100281.75
2022-08-08T17:13:41.168Z,100281.78
2022-08-08T17:16:22.058Z,100286.06
2022-08-08T17:18:51.884Z,100277.63
2022-08-08T17:21:21.442Z,100278.84
2022-08-08T17:23:58.540Z,100283.25
2022-08-08T17:26:30.117Z,100279.25
2022-08-08T17:28:58.445Z,100279.91
2022-08-08T17:31:43.651Z,100279.63
2022-08-08T17:34:47.984Z,100292.25
2022-08-08T17:37:09.208Z,100295.56
2022-08-08T17:40:03.283Z,100289.28
2022-08-08T17:42:25.192Z,100293.84
2022-08-08T17:44:53.029Z,100294.03
2022-08-08T17:47:23.920Z,100295.59
2022-08-08T17:49:52.981Z,100303.72
2022-08-08T17:52:30.081Z,100295.34
2022-08-08T17:54:58.559Z,100299.19
2022-08-08T17:57:28.841Z,100297.44
2022-08-08T18:00:03.723Z,100305.22
2022-08-08T18:02:32.157Z,100306.44
2022-08-08T18:05:04.834Z,100304.34
2022-08-08T18:08:15.368Z,100307.00
2022-08-08T18:10:31.513Z,100304.69
2022-08-08T18:13:01.739Z,100305.31
2022-08-08T18:15:31.412Z,100308.28
2022-08-08T18:18:09.855Z,100307.72
2022-08-08T18:20:59.181Z,100307.50
2022-08-08T18:23:28.857Z,100306.50
2022-08-08T18:26:01.569Z,100307.00
2022-08-08T18:28:33.433Z,100301.28
2022-08-08T18:31:19.454Z,100304.38
2022-08-08T18:34:11.550Z,100301.53
2022-08-08T18:36:36.086Z,100316.59
2022-08-08T18:39:05.705Z,100308.06
2022-08-08T18:41:51.823Z,100315.72
2022-08-08T18:44:21.244Z,100318.59
2022-08-08T18:46:58.072Z,100322.38
2022-08-08T18:49:32.367Z,100316.91
2022-08-08T18:52:08.805Z,100336.00
2022-08-08T18:54:58.979Z,100332.97
2022-08-08T18:57:32.028Z,100347.53
2022-08-08T19:00:10.624Z,100346.19
2022-08-08T19:02:48.505Z,100359.66
2022-08-08T19:05:24.153Z,100364.00
2022-08-08T19:07:58.482Z,100371.00
2022-08-08T19:10:29.266Z,100372.59
2022-08-08T19:12:57.784Z,100377.16
2022-08-08T19:15:33.924Z,100384.25
2022-08-08T19:18:33.390Z,100389.44
2022-08-08T19:20:50.414Z,100399.03
2022-08-08T19:23:18.275Z,100397.16
2022-08-08T19:26:01.702Z,100400.47
2022-08-08T19:28:41.423Z,100401.31
2022-08-08T19:31:10.021Z,100407.59
2022-08-08T19:34:04.908Z,100408.97
2022-08-08T19:36:28.551Z,100414.91
2022-08-08T19:38:56.639Z,100412.78
2022-08-08T19:41:29.611Z,100416.75
2022-08-08T19:44:02.945Z,100426.03
2022-08-08T19:46:33.370Z,100428.97
2022-08-08T19:49:03.039Z,100426.13
2022-08-08T19:51:34.924Z,100423.03
2022-08-08T19:54:09.054Z,100425.38
2022-08-08T19:56:40.867Z,100426.63
2022-08-08T19:59:10.013Z,100436.72
2022-08-08T20:02:02.638Z,100427.47
2022-08-08T20:04:25.970Z,100435.88
2022-08-08T20:06:54.001Z,100435.22
2022-08-08T20:09:25.009Z,100434.66
2022-08-08T20:11:53.980Z,100436.59
2022-08-08T20:14:33.474Z,100436.84
2022-08-08T20:17:03.061Z,100442.44
2022-08-08T20:19:34.516Z,100440.13
2022-08-08T20:22:20.917Z,100448.09
2022-08-08T20:24:57.948Z,100436.88
2022-08-08T20:27:43.861Z,100442.34
2022-08-08T20:30:52.757Z,100445.91
2022-08-08T20:33:18.442Z,100446.06
2022-08-08T20:35:57.211Z,100447.16
2022-08-08T20:38:29.158Z,100452.59
2022-08-08T20:41:00.138Z,100454.47
2022-08-08T20:43:44.290Z,100451.16
2022-08-08T20:46:17.202Z,100454.00
2022-08-08T20:48:45.082Z,100451.50
2022-08-08T20:51:12.789Z,100449.88
2022-08-08T20:54:00.960Z,100449.94
2022-08-08T20:56:35.502Z,100459.72
2022-08-08T20:59:21.119Z,100459.75
2022-08-08T21:02:06.344Z,100468.63
2022-08-08T21:04:37.141Z,100468.69
2022-08-08T21:07:13.858Z,100468.84
2022-08-08T21:10:01.429Z,100466.47
2022-08-08T21:12:35.442Z,100466.72
2022-08-08T21:15:06.526Z,100466.75
2022-08-08T21:17:36.697Z,100468.56
2022-08-08T21:20:05.796Z,100465.16
2022-08-08T21:22:33.612Z,100476.53
2022-08-08T21:25:02.139Z,100470.50
2022-08-08T21:28:05.152Z,100475.66
2022-08-08T21:30:22.114Z,100483.53
2022-08-08T21:32:53.352Z,100486.16
2022-08-08T21:36:14.202Z,100484.56
2022-08-08T21:38:16.721Z,100480.31
2022-08-08T21:40:55.158Z,100486.53
2022-08-08T21:43:24.699Z,100486.69
2022-08-08T21:48:06.371Z,100480.66
2022-08-08T21:48:44.605Z,100474.56
2022-08-08T21:51:20.318Z,100479.81
2022-08-08T21:54:23.304Z,100480.81
2022-08-08T21:56:53.074Z,100479.16
2022-08-08T21:59:20.865Z,100478.34
2022-08-08T22:01:52.346Z,100479.28
2022-08-08T22:04:24.691Z,100471.56
2022-08-08T22:06:53.899Z,100475.13
2022-08-08T22:09:27.031Z,100479.56
2022-08-08T22:12:09.828Z,100472.56
2022-08-08T22:14:42.748Z,100476.91
2022-08-08T22:17:11.869Z,100477.81
2022-08-08T22:20:12.700Z,100472.63
2022-08-08T22:22:31.562Z,100484.88
2022-08-08T22:25:12.325Z,100470.16
2022-08-08T22:28:02.925Z,100478.94
2022-08-08T22:30:33.460Z,100469.47
2022-08-08T22:33:03.444Z,100479.91
2022-08-08T22:36:04.656Z,100472.91
2022-08-08T22:38:39.423Z,100477.28
2022-08-08T22:41:21.024Z,100485.06
2022-08-08T22:44:05.831Z,100482.44
2022-08-08T22:46:38.939Z,100485.06
2022-08-08T22:49:09.948Z,100489.38
2022-08-08T22:51:42.769Z,100487.66
2022-08-08T22:54:30.028Z,100493.75
2022-08-08T22:57:08.662Z,100491.09
2022-08-08T22:59:48.350Z,100486.75
2022-08-08T23:02:28.509Z,100499.00
2022-08-08T23:04:57.800Z,100484.22
2022-08-08T23:07:51.370Z,100484.25
2022-08-08T23:10:19.716Z,100489.50
2022-08-08T23:12:48.899Z,100485.97
2022-08-08T23:16:41.108Z,100487.78
2022-08-08T23:18:11.975Z,100505.22
2022-08-08T23:20:43.187Z,100511.34
2022-08-08T23:23:12.758Z,100496.69
2022-08-08T23:25:45.254Z,100503.63
2022-08-08T23:28:17.715Z,100511.44
2022-08-08T23:30:45.996Z,100506.25
2022-08-08T23:33:21.181Z,100502.81
2022-08-08T23:36:07.839Z,100501.91
2022-08-08T23:38:44.186Z,100504.50
2022-08-08T23:41:22.883Z,100505.38
2022-08-08T23:43:56.251Z,100501.00
2022-08-08T23:49:08.355Z,100490.59
2022-08-08T23:49:15.140Z,100490.63
2022-08-08T23:52:07.254Z,100489.72
2022-08-08T23:54:41.829Z,100486.28
2022-08-08T23:57:25.481Z,100488.03
2022-08-08T23:59:55.605Z,100488.03
